Time;durP1;ratioP1;P1;durP2;ratioP2;P2;SDS_P1;SDS_P2;PMS_P1;PMS_P2;Temp;Humidity;BMP_temperature;BMP_pressure;BME280_temperature;BME280_humidity;BME280_pressure;Samples;Min_cycle;Max_cycle;Signal;HPM_P1;HPM_P2
2023/08/07 00:01:12;;;;;;;0.00;0.00;;;14.70;99.90;;;;;;5012441;28;20010;-77
2023/08/07 00:03:38;;;;;;;0.00;0.00;;;14.70;99.90;;;;;;5005409;28;20351;-76
2023/08/07 00:06:04;;;;;;;0.00;0.00;;;14.70;99.90;;;;;;5018120;28;20805;-76
2023/08/07 00:08:31;;;;;;;0.00;0.00;;;14.80;99.90;;;;;;4988658;28;20045;-79
2023/08/07 00:11:10;;;;;;;0.00;0.00;;;14.80;99.90;;;;;;5018343;28;20041;-78
2023/08/07 00:13:37;;;;;;;0.00;0.00;;;14.80;99.90;;;;;;4990893;28;20026;-79
2023/08/07 00:16:02;;;;;;;0.00;0.00;;;14.80;99.90;;;;;;4995448;28;20496;-79
2023/08/07 00:18:29;;;;;;;0.00;0.00;;;14.80;99.90;;;;;;4988639;28;20036;-78
2023/08/07 00:20:54;;;;;;;0.00;0.00;;;14.80;99.90;;;;;;4995094;28;20017;-77
2023/08/07 00:23:20;;;;;;;0.00;0.00;;;14.80;99.90;;;;;;5008505;28;20076;-78
2023/08/07 00:25:47;;;;;;;0.00;0.00;;;14.90;99.90;;;;;;5011787;28;20025;-76
2023/08/07 00:28:13;;;;;;;0.00;0.00;;;14.80;99.90;;;;;;5026390;28;20020;-77
2023/08/07 00:30:39;;;;;;;0.00;0.00;;;14.80;99.90;;;;;;5013846;28;20092;-76
2023/08/07 00:33:05;;;;;;;0.00;0.00;;;14.80;99.90;;;;;;5027273;28;20026;-77
2023/08/07 00:35:30;;;;;;;0.00;0.00;;;14.80;99.90;;;;;;5004666;28;20049;-79
2023/08/07 00:37:56;;;;;;;0.00;0.00;;;14.90;99.90;;;;;;5019082;28;20269;-77
2023/08/07 00:40:22;;;;;;;0.00;0.00;;;14.90;99.90;;;;;;5007131;28;20036;-78
2023/08/07 00:42:47;;;;;;;0.00;0.00;;;14.90;99.90;;;;;;4998431;28;20208;-79
2023/08/07 00:45:13;;;;;;;0.00;0.00;;;14.80;99.90;;;;;;4995502;28;20433;-80
2023/08/07 00:47:39;;;;;;;0.00;0.00;;;14.90;99.90;;;;;;5013053;28;20072;-79
2023/08/07 00:50:05;;;;;;;0.00;0.00;;;14.80;99.90;;;;;;4995500;28;20041;-80
2023/08/07 00:52:32;;;;;;;0.00;0.00;;;14.80;99.90;;;;;;4999733;28;20018;-80
2023/08/07 00:54:58;;;;;;;0.00;0.00;;;14.80;99.90;;;;;;5027125;28;20496;-78
2023/08/07 00:57:25;;;;;;;0.00;0.00;;;14.80;99.90;;;;;;5007767;28;20078;-77
2023/08/07 00:59:51;;;;;;;0.00;0.00;;;14.80;99.90;;;;;;5010837;28;20650;-78
2023/08/07 01:02:17;;;;;;;0.00;0.00;;;14.90;99.90;;;;;;5025333;28;20070;-77
2023/08/07 01:04:43;;;;;;;0.00;0.00;;;14.80;99.90;;;;;;5019024;28;20036;-77
2023/08/07 01:07:09;;;;;;;0.00;0.00;;;14.90;99.90;;;;;;5010051;28;20054;-78
2023/08/07 01:09:34;;;;;;;0.00;0.00;;;14.80;99.90;;;;;;5016697;28;20034;-76
2023/08/07 01:12:18;;;;;;;0.00;0.00;;;14.90;99.90;;;;;;5004209;28;20033;-77
2023/08/07 01:14:49;;;;;;;0.00;0.00;;;14.80;99.90;;;;;;5021430;28;20103;-79
2023/08/07 01:17:19;;;;;;;0.00;0.00;;;14.80;99.90;;;;;;5015032;28;20033;-78
2023/08/07 01:19:45;;;;;;;0.00;0.00;;;14.80;99.90;;;;;;4995986;28;20037;-78
2023/08/07 01:22:13;;;;;;;0.00;0.00;;;14.80;99.90;;;;;;5009877;28;20441;-74
2023/08/07 01:24:40;;;;;;;0.00;0.00;;;14.80;99.90;;;;;;4989571;28;20485;-76
2023/08/07 01:27:31;;;;;;;0.00;0.00;;;14.70;99.90;;;;;;5007589;28;20093;-77
2023/08/07 01:30:25;;;;;;;0.00;0.00;;;14.80;99.90;;;;;;5007409;28;20061;-80
2023/08/07 01:33:14;;;;;;;0.00;0.00;;;14.80;99.90;;;;;;5012350;28;20045;-77
2023/08/07 01:35:49;;;;;;;0.43;0.43;;;14.80;99.90;;;;;;5009913;28;20516;-79
2023/08/07 01:38:16;;;;;;;0.00;0.00;;;14.90;99.90;;;;;;4994479;28;20598;-77
2023/08/07 01:40:42;;;;;;;;;;;14.90;99.90;;;;;;4992899;28;20112;-79
2023/08/07 01:43:08;;;;;;;0.00;0.00;;;14.90;99.90;;;;;;5002031;28;19952;-79
2023/08/07 01:45:34;;;;;;;0.00;0.00;;;15.00;99.90;;;;;;5009041;28;20022;-77
2023/08/07 01:50:36;;;;;;;0.00;0.00;;;15.00;99.90;;;;;;5836043;23;20400;-77
2023/08/07 01:53:02;;;;;;;0.00;0.00;;;15.00;99.90;;;;;;5054192;28;20036;-77
2023/08/07 02:03:14;;;;;;;0.00;0.00;;;15.00;99.90;;;;;;5603013;22;20038;-78
2023/08/07 02:05:40;;;;;;;0.10;0.10;;;14.90;99.90;;;;;;5015065;28;20074;-77
2023/08/07 02:08:05;;;;;;;0.00;0.00;;;14.90;99.90;;;;;;5012121;28;20022;-78
2023/08/07 02:10:31;;;;;;;0.00;0.00;;;15.00;99.90;;;;;;5015107;28;20014;-77
2023/08/07 02:15:33;;;;;;;0.00;0.00;;;15.10;99.90;;;;;;5400564;22;20053;-77
2023/08/07 02:20:34;;;;;;;0.00;0.00;;;15.10;99.90;;;;;;5716121;22;20108;-79
2023/08/07 02:23:00;;;;;;;0.00;0.00;;;15.00;99.90;;;;;;5020985;28;20041;-80
2023/08/07 02:25:25;;;;;;;0.00;0.00;;;15.10;99.90;;;;;;5001732;28;20095;-77
2023/08/07 02:27:51;;;;;;;0.00;0.00;;;15.00;99.90;;;;;;4999636;28;20121;-80
2023/08/07 02:30:17;;;;;;;1.03;0.20;;;15.10;99.90;;;;;;5015089;28;20044;-80
2023/08/07 02:32:44;;;;;;;0.00;0.00;;;15.10;99.90;;;;;;5001634;28;20022;-79
2023/08/07 02:35:11;;;;;;;0.00;0.00;;;15.10;99.90;;;;;;5015195;28;20544;-79
2023/08/07 02:37:36;;;;;;;;;;;15.00;99.90;;;;;;5017361;28;20022;-78
2023/08/07 02:40:02;;;;;;;0.00;0.00;;;15.00;99.90;;;;;;5020716;28;19971;-79
2023/08/07 02:42:28;;;;;;;0.00;0.00;;;15.00;99.90;;;;;;5013530;28;20041;-79
2023/08/07 02:44:53;;;;;;;0.00;0.00;;;15.10;99.90;;;;;;5015421;28;20037;-79
2023/08/07 02:47:19;;;;;;;0.00;0.00;;;15.10;99.90;;;;;;5019792;28;20029;-77
2023/08/07 02:49:46;;;;;;;0.00;0.00;;;15.00;99.90;;;;;;5012116;28;20373;-79
2023/08/07 02:52:12;;;;;;;0.00;0.00;;;15.00;99.90;;;;;;4998278;28;20067;-80
2023/08/07 02:54:38;;;;;;;0.00;0.00;;;15.00;99.90;;;;;;5013105;28;20034;-78
2023/08/07 02:57:04;;;;;;;0.00;0.00;;;15.00;99.90;;;;;;5014421;28;20026;-79
2023/08/07 02:59:30;;;;;;;0.00;0.00;;;15.00;99.90;;;;;;5000108;28;20037;-80
2023/08/07 03:01:56;;;;;;;0.00;0.00;;;14.90;99.90;;;;;;4996784;28;20041;-79
2023/08/07 03:04:22;;;;;;;0.00;0.00;;;14.90;99.90;;;;;;5005416;28;20030;-80
2023/08/07 03:06:47;;;;;;;0.00;0.00;;;14.90;99.90;;;;;;4983584;28;20113;-79
2023/08/07 03:09:13;;;;;;;0.00;0.00;;;14.80;99.90;;;;;;4964587;28;20088;-78
2023/08/07 03:11:39;;;;;;;0.00;0.00;;;14.80;99.90;;;;;;4995298;28;20026;-79
2023/08/07 03:14:04;;;;;;;0.00;0.00;;;14.80;99.90;;;;;;4977348;28;20088;-79
2023/08/07 03:16:30;;;;;;;0.00;0.00;;;14.80;99.90;;;;;;4996041;28;20041;-80
2023/08/07 03:18:57;;;;;;;0.00;0.00;;;14.80;99.90;;;;;;4990235;28;20034;-80
2023/08/07 03:21:22;;;;;;;0.00;0.00;;;14.80;99.90;;;;;;5001604;28;20349;-79
2023/08/07 03:23:50;;;;;;;0.00;0.00;;;14.80;99.90;;;;;;5005923;28;20026;-79
2023/08/07 03:26:16;;;;;;;0.00;0.00;;;14.70;99.90;;;;;;5006482;28;20019;-78
2023/08/07 03:28:41;;;;;;;0.00;0.00;;;14.70;99.90;;;;;;4997619;28;20022;-80
2023/08/07 03:31:07;;;;;;;0.00;0.00;;;14.70;99.90;;;;;;5004939;28;20427;-78
2023/08/07 03:33:33;;;;;;;0.00;0.00;;;14.70;99.90;;;;;;4976504;28;20026;-77
2023/08/07 03:35:59;;;;;;;0.00;0.00;;;14.70;99.90;;;;;;5001806;28;20025;-79
2023/08/07 03:38:25;;;;;;;0.00;0.00;;;14.60;99.90;;;;;;5000182;28;20034;-80
2023/08/07 03:40:51;;;;;;;;;;;14.60;99.90;;;;;;4995192;28;20037;-77
2023/08/07 03:43:16;;;;;;;0.00;0.00;;;14.60;99.90;;;;;;4997567;28;19914;-77
2023/08/07 03:45:42;;;;;;;0.00;0.00;;;14.60;99.90;;;;;;5001176;28;20031;-79
2023/08/07 03:48:08;;;;;;;0.00;0.00;;;14.60;99.90;;;;;;4996177;28;20049;-78
2023/08/07 03:50:36;;;;;;;0.10;0.10;;;14.60;99.90;;;;;;5011778;28;20097;-79
2023/08/07 03:53:02;;;;;;;0.00;0.00;;;14.50;99.90;;;;;;4975817;28;20022;-77
2023/08/07 03:55:28;;;;;;;0.00;0.00;;;14.60;99.90;;;;;;4996529;28;20046;-77
2023/08/07 03:57:53;;;;;;;0.00;0.00;;;14.60;99.90;;;;;;4994722;28;20034;-77
2023/08/07 04:00:20;;;;;;;0.00;0.00;;;14.50;99.90;;;;;;4999986;28;20192;-78
2023/08/07 04:02:46;;;;;;;0.00;0.00;;;14.50;99.90;;;;;;5003229;28;20062;-78
2023/08/07 04:05:11;;;;;;;0.00;0.00;;;14.50;99.90;;;;;;4996664;28;20435;-79
2023/08/07 04:07:37;;;;;;;0.00;0.00;;;14.50;99.90;;;;;;4997839;28;20023;-79
2023/08/07 04:10:03;;;;;;;0.00;0.00;;;14.60;99.90;;;;;;4997194;28;20645;-78
2023/08/07 04:12:28;;;;;;;0.00;0.00;;;14.60;99.90;;;;;;4993984;28;20030;-77
2023/08/07 04:14:54;;;;;;;0.00;0.00;;;14.60;99.90;;;;;;5000645;28;20082;-76
2023/08/07 04:17:20;;;;;;;0.00;0.00;;;14.60;99.90;;;;;;4988228;28;20033;-79
2023/08/07 04:19:46;;;;;;;0.00;0.00;;;14.60;99.90;;;;;;4994754;28;20025;-79
2023/08/07 04:22:11;;;;;;;0.00;0.00;;;14.70;99.90;;;;;;5002246;28;20030;-77
2023/08/07 04:24:37;;;;;;;0.00;0.00;;;14.80;99.90;;;;;;5008381;28;20273;-77
2023/08/07 04:27:03;;;;;;;0.00;0.00;;;14.80;99.90;;;;;;5020899;28;20023;-77
2023/08/07 04:29:28;;;;;;;0.00;0.00;;;14.90;99.90;;;;;;4990603;28;20258;-77
2023/08/07 04:31:54;;;;;;;0.00;0.00;;;14.80;99.90;;;;;;4993888;28;20034;-79
2023/08/07 04:34:19;;;;;;;0.00;0.00;;;14.80;99.90;;;;;;4990080;28;20265;-79
2023/08/07 04:36:45;;;;;;;0.00;0.00;;;14.70;99.90;;;;;;4990957;28;20026;-78
2023/08/07 04:39:13;;;;;;;0.00;0.00;;;14.80;99.90;;;;;;4991427;28;20266;-79
2023/08/07 04:41:39;;;;;;;0.00;0.00;;;14.70;99.90;;;;;;4989024;28;20019;-79
2023/08/07 04:44:04;;;;;;;0.00;0.00;;;14.70;99.90;;;;;;4991557;28;20041;-76
2023/08/07 04:46:30;;;;;;;0.00;0.00;;;14.60;99.90;;;;;;4992142;28;20030;-79
2023/08/07 04:48:56;;;;;;;0.00;0.00;;;14.70;99.90;;;;;;4992239;28;20023;-78
2023/08/07 04:51:23;;;;;;;0.00;0.00;;;14.70;99.90;;;;;;4992998;28;20030;-76
2023/08/07 04:53:50;;;;;;;0.00;0.00;;;14.70;99.90;;;;;;5000590;28;20046;-80
2023/08/07 04:56:17;;;;;;;0.00;0.00;;;14.70;99.90;;;;;;4997222;28;20034;-80
2023/08/07 04:58:42;;;;;;;0.00;0.00;;;14.70;99.90;;;;;;4993231;28;20382;-79
2023/08/07 05:01:08;;;;;;;0.00;0.00;;;14.80;99.90;;;;;;4986090;28;20028;-75
2023/08/07 05:03:34;;;;;;;0.00;0.00;;;14.90;99.90;;;;;;5000223;28;20035;-76
2023/08/07 05:06:01;;;;;;;0.00;0.00;;;15.00;99.90;;;;;;5002811;28;20442;-78
2023/08/07 05:08:29;;;;;;;0.00;0.00;;;15.00;99.90;;;;;;4993273;28;20034;-79
2023/08/07 05:10:55;;;;;;;0.00;0.00;;;15.10;99.90;;;;;;4993313;28;20079;-78
2023/08/07 05:13:22;;;;;;;0.00;0.00;;;15.10;99.90;;;;;;4998052;28;20083;-80
2023/08/07 05:15:48;;;;;;;0.00;0.00;;;15.20;99.90;;;;;;4994699;28;20050;-79
2023/08/07 05:18:14;;;;;;;;;;;15.30;99.90;;;;;;4976098;28;20042;-79
2023/08/07 05:20:40;;;;;;;0.00;0.00;;;15.30;99.90;;;;;;4976120;28;19902;-78
2023/08/07 05:23:06;;;;;;;0.00;0.00;;;15.20;99.90;;;;;;4997863;28;20389;-76
2023/08/07 05:25:32;;;;;;;0.00;0.00;;;15.10;99.90;;;;;;4992374;28;20265;-78
2023/08/07 05:27:58;;;;;;;0.00;0.00;;;15.00;99.90;;;;;;5002536;28;20030;-79
2023/08/07 05:30:23;;;;;;;0.00;0.00;;;15.00;99.90;;;;;;5003200;28;20018;-79
2023/08/07 05:32:49;;;;;;;0.00;0.00;;;15.00;99.90;;;;;;5015789;28;20031;-79
2023/08/07 05:35:15;;;;;;;0.00;0.00;;;15.00;99.90;;;;;;4971233;28;20389;-80
2023/08/07 05:37:40;;;;;;;0.00;0.00;;;15.00;99.90;;;;;;4986555;28;20270;-78
2023/08/07 05:40:06;;;;;;;0.00;0.00;;;15.00;99.90;;;;;;4990058;28;20793;-77
2023/08/07 05:42:32;;;;;;;0.00;0.00;;;15.00;99.90;;;;;;4993294;28;20448;-74
2023/08/07 05:44:58;;;;;;;0.00;0.00;;;15.10;99.90;;;;;;4991033;28;20034;-79
2023/08/07 05:47:24;;;;;;;0.00;0.00;;;15.10;99.90;;;;;;4990659;28;20165;-79
2023/08/07 05:49:50;;;;;;;0.00;0.00;;;15.20;99.90;;;;;;4988695;28;20091;-79
2023/08/07 05:52:17;;;;;;;0.00;0.00;;;15.30;99.90;;;;;;4990329;28;20042;-79
2023/08/07 05:54:43;;;;;;;0.00;0.00;;;15.20;99.90;;;;;;4990863;28;20386;-78
2023/08/07 05:57:09;;;;;;;0.00;0.00;;;15.20;99.90;;;;;;4995753;28;20045;-80
2023/08/07 05:59:35;;;;;;;0.00;0.00;;;15.10;99.90;;;;;;4994581;28;20358;-79
2023/08/07 06:02:02;;;;;;;0.00;0.00;;;15.00;99.90;;;;;;4990356;28;20018;-79
2023/08/07 06:04:27;;;;;;;;;;;15.00;99.90;;;;;;4991610;28;20046;-78
2023/08/07 06:06:53;;;;;;;0.00;0.00;;;15.00;99.90;;;;;;4985207;28;19949;-78
2023/08/07 06:09:20;;;;;;;0.00;0.00;;;15.00;99.90;;;;;;4988588;28;20505;-81
2023/08/07 06:11:46;;;;;;;0.00;0.00;;;14.80;99.90;;;;;;4982071;28;20040;-78
2023/08/07 06:14:11;;;;;;;0.00;0.00;;;14.70;99.90;;;;;;4985402;28;20121;-78
2023/08/07 06:16:38;;;;;;;0.00;0.00;;;14.70;99.90;;;;;;4984183;28;20030;-77
2023/08/07 06:19:03;;;;;;;0.00;0.00;;;14.70;99.90;;;;;;4991894;28;20030;-77
2023/08/07 06:21:29;;;;;;;0.00;0.00;;;14.60;99.90;;;;;;4988939;28;20100;-78
2023/08/07 06:23:55;;;;;;;0.00;0.00;;;14.60;99.90;;;;;;4988815;28;20109;-79
2023/08/07 06:26:20;;;;;;;0.00;0.00;;;14.50;99.90;;;;;;4979651;28;20026;-82
2023/08/07 06:28:46;;;;;;;0.00;0.00;;;14.50;99.90;;;;;;4988831;28;20041;-75
2023/08/07 06:31:12;;;;;;;0.00;0.00;;;14.70;99.90;;;;;;4989159;28;20262;-77
2023/08/07 06:33:38;;;;;;;0.00;0.00;;;14.80;99.90;;;;;;4999306;28;20087;-78
2023/08/07 06:36:05;;;;;;;0.00;0.00;;;14.90;99.90;;;;;;4987959;28;20735;-76
2023/08/07 06:38:30;;;;;;;;;;;15.10;99.90;;;;;;4993112;28;20093;-76
2023/08/07 06:40:56;;;;;;;0.00;0.00;;;15.30;99.90;;;;;;4997551;28;19913;-79
2023/08/07 06:43:22;;;;;;;0.00;0.00;;;15.60;99.90;;;;;;4978020;28;20057;-79
2023/08/07 06:45:52;;;;;;;0.00;0.00;;;15.70;99.90;;;;;;4991519;28;20486;-78
2023/08/07 06:48:18;;;;;;;0.00;0.00;;;15.80;99.90;;;;;;4986462;28;20038;-77
2023/08/07 06:50:44;;;;;;;0.00;0.00;;;15.90;99.90;;;;;;4988824;28;20030;-75
2023/08/07 06:53:09;;;;;;;0.00;0.00;;;16.10;99.90;;;;;;4991334;28;20096;-76
2023/08/07 06:55:35;;;;;;;0.00;0.00;;;16.10;99.90;;;;;;4985648;28;20034;-77
2023/08/07 06:58:03;;;;;;;0.00;0.00;;;16.10;99.90;;;;;;4981173;28;20026;-75
2023/08/07 07:00:28;;;;;;;0.00;0.00;;;16.10;99.90;;;;;;4990516;28;20033;-77
2023/08/07 07:02:54;;;;;;;0.00;0.00;;;16.30;99.90;;;;;;4999655;28;20042;-78
2023/08/07 07:05:19;;;;;;;0.00;0.00;;;16.30;99.90;;;;;;4993611;28;20273;-78
2023/08/07 07:07:45;;;;;;;0.00;0.00;;;16.20;99.90;;;;;;4984281;28;20725;-78
2023/08/07 07:10:11;;;;;;;0.00;0.00;;;16.10;99.90;;;;;;4986258;28;20257;-79
2023/08/07 07:12:36;;;;;;;0.00;0.00;;;15.90;99.90;;;;;;4991871;28;20076;-78
2023/08/07 07:15:02;;;;;;;0.00;0.00;;;15.90;99.90;;;;;;4970964;28;20393;-77
2023/08/07 07:17:28;;;;;;;0.00;0.00;;;15.80;99.90;;;;;;4980995;28;20417;-77
2023/08/07 07:19:53;;;;;;;0.03;0.03;;;15.60;99.90;;;;;;4969131;28;20045;-78
2023/08/07 07:22:19;;;;;;;0.00;0.00;;;15.50;99.90;;;;;;4983361;28;20023;-78
2023/08/07 07:24:45;;;;;;;0.00;0.00;;;15.40;99.90;;;;;;4969078;28;20285;-79
2023/08/07 07:27:10;;;;;;;0.00;0.00;;;15.30;99.90;;;;;;4984028;28;20116;-78
2023/08/07 07:29:36;;;;;;;0.00;0.00;;;15.40;99.90;;;;;;4991385;28;20274;-76
2023/08/07 07:32:02;;;;;;;0.00;0.00;;;15.50;99.90;;;;;;4987265;28;20026;-78
2023/08/07 07:34:28;;;;;;;0.00;0.00;;;15.70;99.90;;;;;;4968070;28;20030;-77
2023/08/07 07:36:54;;;;;;;0.00;0.00;;;15.60;99.90;;;;;;4990152;28;20041;-79
2023/08/07 07:39:20;;;;;;;0.00;0.00;;;15.50;99.90;;;;;;4985668;28;20026;-78
2023/08/07 07:41:45;;;;;;;0.00;0.00;;;15.40;99.90;;;;;;4989050;28;20094;-78
2023/08/07 07:44:11;;;;;;;0.00;0.00;;;15.40;99.90;;;;;;4965381;28;20057;-79
2023/08/07 07:46:37;;;;;;;0.00;0.00;;;15.30;99.90;;;;;;4983684;28;20273;-77
2023/08/07 07:49:04;;;;;;;0.00;0.00;;;15.30;99.90;;;;;;4978957;28;20269;-79
2023/08/07 07:51:31;;;;;;;0.00;0.00;;;15.30;99.90;;;;;;4981663;28;20474;-78
2023/08/07 07:53:57;;;;;;;0.00;0.00;;;15.30;99.90;;;;;;4984268;28;20025;-78
2023/08/07 07:56:23;;;;;;;0.00;0.00;;;15.30;99.90;;;;;;4984951;28;20100;-78
2023/08/07 07:58:49;;;;;;;0.00;0.00;;;15.30;99.90;;;;;;4969525;28;20038;-77
2023/08/07 08:01:14;;;;;;;0.00;0.00;;;15.40;99.90;;;;;;4992457;28;20030;-77
2023/08/07 08:03:40;;;;;;;0.00;0.00;;;15.50;99.90;;;;;;5009275;28;20332;-80
2023/08/07 08:06:05;;;;;;;0.00;0.00;;;15.70;99.90;;;;;;4992607;28;20023;-79
2023/08/07 08:08:31;;;;;;;0.00;0.00;;;15.80;99.90;;;;;;4984174;28;20276;-79
2023/08/07 08:10:57;;;;;;;0.00;0.00;;;16.10;99.90;;;;;;4989152;28;20038;-80
2023/08/07 08:13:23;;;;;;;0.00;0.00;;;16.60;99.90;;;;;;4995350;28;20026;-78
2023/08/07 08:15:49;;;;;;;0.00;0.00;;;16.90;99.90;;;;;;4989788;28;20019;-77
2023/08/07 08:18:15;;;;;;;0.00;0.00;;;17.30;99.90;;;;;;4986102;28;20035;-79
2023/08/07 08:20:40;;;;;;;0.00;0.00;;;18.00;99.90;;;;;;4991680;28;20144;-79
2023/08/07 08:23:06;;;;;;;0.00;0.00;;;18.40;99.90;;;;;;4988979;28;20022;-78
2023/08/07 08:25:32;;;;;;;0.00;0.00;;;18.90;99.90;;;;;;4981203;28;20110;-76
2023/08/07 08:27:59;;;;;;;0.00;0.00;;;18.90;99.90;;;;;;4981577;28;20026;-78
2023/08/07 08:30:25;;;;;;;0.00;0.00;;;19.10;99.90;;;;;;4982558;28;20039;-77
2023/08/07 08:32:50;;;;;;;0.00;0.00;;;20.00;99.90;;;;;;4986075;28;20474;-77
2023/08/07 08:35:16;;;;;;;0.00;0.00;;;19.90;99.90;;;;;;4985622;28;20066;-80
2023/08/07 08:37:42;;;;;;;0.00;0.00;;;19.70;99.90;;;;;;4963001;28;20034;-78
2023/08/07 08:40:11;;;;;;;0.00;0.00;;;20.00;99.90;;;;;;4961906;28;20092;-78
2023/08/07 08:42:39;;;;;;;0.00;0.00;;;19.90;99.90;;;;;;4976002;28;20011;-80
2023/08/07 08:45:08;;;;;;;0.00;0.00;;;19.20;99.90;;;;;;5002437;28;20062;-77
2023/08/07 08:47:36;;;;;;;0.00;0.00;;;18.70;99.90;;;;;;4986281;28;20034;-76
2023/08/07 08:50:14;;;;;;;0.00;0.00;;;18.40;99.90;;;;;;4993200;28;20026;-79
2023/08/07 08:52:43;;;;;;;0.00;0.00;;;17.80;99.90;;;;;;4992640;28;20061;-77
2023/08/07 08:55:10;;;;;;;0.00;0.00;;;17.50;99.90;;;;;;4994439;28;20058;-79
2023/08/07 08:57:38;;;;;;;0.00;0.00;;;17.00;99.90;;;;;;4992314;28;20512;-79
2023/08/07 09:00:15;;;;;;;0.00;0.00;;;16.70;99.90;;;;;;4994785;28;20033;-80
2023/08/07 09:02:42;;;;;;;0.00;0.00;;;16.30;99.90;;;;;;4984127;28;20106;-79
2023/08/07 09:05:09;;;;;;;0.00;0.00;;;16.20;99.90;;;;;;4997576;28;20023;-79
2023/08/07 09:07:35;;;;;;;;;;;16.00;99.90;;;;;;4993385;28;20061;-79
2023/08/07 09:10:03;;;;;;;0.00;0.00;;;15.80;99.90;;;;;;4987393;28;19909;-77
2023/08/07 09:12:32;;;;;;;0.00;0.00;;;15.70;99.90;;;;;;5001572;28;20117;-79
2023/08/07 09:14:59;;;;;;;0.00;0.00;;;15.60;99.90;;;;;;4988256;28;20469;-78
2023/08/07 09:17:31;;;;;;;0.00;0.00;;;15.60;99.90;;;;;;4989439;28;20026;-80
2023/08/07 09:19:57;;;;;;;0.00;0.00;;;15.40;99.90;;;;;;5011204;28;20038;-78
2023/08/07 09:22:23;;;;;;;0.00;0.00;;;15.30;99.90;;;;;;5001593;28;20441;-79
2023/08/07 09:24:49;;;;;;;0.00;0.00;;;15.50;99.90;;;;;;4999060;28;20035;-79
2023/08/07 09:27:15;;;;;;;0.00;0.00;;;15.40;99.90;;;;;;4992005;28;20036;-79
2023/08/07 09:29:42;;;;;;;0.00;0.00;;;15.50;99.90;;;;;;5010904;28;20100;-77
2023/08/07 09:32:11;;;;;;;0.00;0.00;;;15.50;99.90;;;;;;5015205;28;20510;-80
2023/08/07 09:34:40;;;;;;;0.00;0.00;;;15.40;99.90;;;;;;5271930;23;20115;-77
2023/08/07 09:37:08;;;;;;;0.00;0.00;;;15.10;99.90;;;;;;5330460;23;20049;-77
2023/08/07 09:39:35;;;;;;;0.00;0.00;;;15.10;99.90;;;;;;5041766;28;20037;-80
2023/08/07 09:42:04;;;;;;;0.00;0.00;;;15.10;99.90;;;;;;5026971;28;20113;-80
2023/08/07 09:44:37;;;;;;;0.00;0.00;;;15.10;99.90;;;;;;5021806;28;20022;-77
2023/08/07 09:47:16;;;;;;;0.00;0.00;;;15.00;99.90;;;;;;5023199;28;20038;-86
2023/08/07 09:49:43;;;;;;;0.00;0.00;;;14.80;99.90;;;;;;5010491;28;20470;-88
2023/08/07 09:54:38;;;;;;;0.00;0.00;;;14.70;99.90;;;;;;5619375;22;20028;-78
2023/08/07 09:57:05;;;;;;;0.00;0.00;;;14.60;99.90;;;;;;5250521;22;20074;-76
2023/08/07 09:59:33;;;;;;;0.00;0.00;;;14.70;99.90;;;;;;5690958;22;20376;-76
2023/08/07 10:14:48;;;;;;;0.00;0.00;;;15.70;99.90;;;;;;5021594;28;20394;-77
2023/08/07 10:17:14;;;;;;;;;;;15.80;99.90;;;;;;5021360;28;20041;-77
2023/08/07 10:19:40;;;;;;;0.00;0.00;;;16.10;99.90;;;;;;5023472;28;19913;-77
2023/08/07 10:22:06;;;;;;;0.00;0.00;;;16.10;99.90;;;;;;5019140;28;20020;-76
2023/08/07 10:24:38;;;;;;;0.00;0.00;;;16.10;99.90;;;;;;4998344;28;20501;-78
2023/08/07 10:27:05;;;;;;;0.00;0.00;;;15.80;99.90;;;;;;5000386;28;20046;-78
2023/08/07 10:29:32;;;;;;;0.00;0.00;;;15.60;99.90;;;;;;5014416;28;20089;-76
2023/08/07 10:31:58;;;;;;;0.00;0.00;;;15.50;99.90;;;;;;5016508;28;20026;-78
2023/08/07 10:34:24;;;;;;;0.00;0.00;;;15.30;99.90;;;;;;5027663;28;20014;-76
2023/08/07 10:54:49;;;;;;;0.00;0.00;;;14.60;99.90;;;;;;6016381;22;20930;-76
2023/08/07 10:57:17;;;;;;;0.00;0.00;;;14.70;99.90;;;;;;5242744;22;20041;-76
2023/08/07 11:05:05;;;;;;;0.00;0.00;;;14.60;99.90;;;;;;5364401;22;20080;-77
2023/08/07 11:07:31;;;;;;;0.00;0.00;;;14.50;99.90;;;;;;5027750;28;20307;-76
2023/08/07 11:09:59;;;;;;;0.00;0.00;;;14.40;99.90;;;;;;5008911;28;20112;-75
2023/08/07 11:15:00;;;;;;;0.00;0.00;;;14.50;99.90;;;;;;5332487;22;20038;-76
2023/08/07 11:19:58;;;;;;;0.00;0.00;;;14.40;99.90;;;;;;5240573;23;20033;-76
2023/08/07 11:22:24;;;;;;;;;;;14.40;99.90;;;;;;5027508;28;20038;-77
2023/08/07 11:27:25;;;;;;;0.00;0.00;;;14.60;99.90;;;;;;5329014;22;20038;-75
2023/08/07 11:29:51;;;;;;;0.00;0.00;;;14.60;99.90;;;;;;5030620;28;20042;-75
2023/08/07 11:32:21;;;;;;;0.00;0.00;;;14.60;99.90;;;;;;5007892;28;20108;-76
2023/08/07 11:34:51;;;;;;;0.00;0.00;;;14.70;99.90;;;;;;5007465;28;20086;-76
2023/08/07 11:37:17;;;;;;;0.00;0.00;;;14.80;99.90;;;;;;5009565;28;20022;-76
2023/08/07 11:39:43;;;;;;;0.00;0.00;;;14.80;99.90;;;;;;5008974;28;20033;-75
2023/08/07 11:42:09;;;;;;;0.00;0.00;;;14.70;99.90;;;;;;5014700;28;20105;-78
2023/08/07 11:44:35;;;;;;;0.00;0.00;;;14.60;99.90;;;;;;4987308;28;20060;-79
2023/08/07 11:47:01;;;;;;;0.00;0.00;;;14.60;99.90;;;;;;4988700;28;20034;-80
2023/08/07 11:49:27;;;;;;;0.00;0.00;;;14.60;99.90;;;;;;5008814;28;20026;-79
2023/08/07 11:51:54;;;;;;;0.00;0.00;;;14.60;99.90;;;;;;5006966;28;20034;-79
2023/08/07 11:54:20;;;;;;;0.00;0.00;;;14.60;99.90;;;;;;4976754;28;20030;-79
2023/08/07 11:56:45;;;;;;;0.00;0.00;;;14.50;99.90;;;;;;4995169;28;20037;-79
2023/08/07 11:59:11;;;;;;;0.00;0.00;;;14.50;99.90;;;;;;5002203;28;20592;-78
2023/08/07 12:01:40;;;;;;;0.00;0.00;;;14.60;99.90;;;;;;4989438;28;20030;-78
2023/08/07 12:04:05;;;;;;;0.00;0.00;;;14.70;99.90;;;;;;4979769;28;20731;-80
2023/08/07 12:06:31;;;;;;;0.00;0.00;;;14.70;99.90;;;;;;4997965;28;20053;-78
2023/08/07 12:08:57;;;;;;;0.00;0.00;;;14.80;99.90;;;;;;5002169;28;20022;-79
2023/08/07 12:11:23;;;;;;;0.00;0.00;;;14.80;99.90;;;;;;5007585;28;20037;-76
2023/08/07 12:13:50;;;;;;;0.00;0.00;;;15.10;99.90;;;;;;5005633;28;20026;-78
2023/08/07 12:16:16;;;;;;;0.00;0.00;;;15.00;99.90;;;;;;5009034;28;20034;-78
2023/08/07 12:18:47;;;;;;;0.00;0.00;;;15.10;99.90;;;;;;5009881;28;20034;-78
2023/08/07 12:21:15;;;;;;;0.35;0.32;;;15.20;99.90;;;;;;4996169;28;20108;-78
2023/08/07 12:23:41;;;;;;;0.00;0.00;;;15.50;99.90;;;;;;5017180;28;20049;-76
2023/08/07 12:26:07;;;;;;;0.05;0.05;;;15.50;99.90;;;;;;4992825;28;20394;-79
2023/08/07 12:28:37;;;;;;;0.00;0.00;;;15.70;99.90;;;;;;4992230;28;20030;-78
2023/08/07 12:31:03;;;;;;;0.00;0.00;;;15.80;99.90;;;;;;5006747;28;20022;-77
2023/08/07 12:33:30;;;;;;;0.03;0.03;;;15.90;99.90;;;;;;5006389;28;20026;-78
2023/08/07 12:41:06;;;;;;;0.00;0.00;;;16.10;99.90;;;;;;5429078;23;20103;-78
2023/08/07 12:43:32;;;;;;;0.00;0.00;;;16.10;99.90;;;;;;5050833;28;20032;-76
2023/08/07 12:48:33;;;;;;;0.00;0.00;;;16.20;99.90;;;;;;5430522;23;20048;-77
2023/08/07 12:53:35;;;;;;;0.00;0.00;;;16.60;99.90;;;;;;5500842;22;20041;-75
2023/08/07 13:06:22;;;;;;;0.00;0.00;;;17.70;99.90;;;;;;5754334;23;20050;-76
2023/08/07 13:11:23;;;;;;;0.00;0.00;;;18.00;99.90;;;;;;5199830;22;20056;-75
2023/08/07 13:13:49;;;;;;;0.00;0.00;;;18.20;99.90;;;;;;5030843;28;20015;-77
2023/08/07 13:24:01;;;;;;;0.00;0.00;;;18.40;99.90;;;;;;5031196;28;20034;-77
2023/08/07 13:26:27;;;;;;;0.00;0.00;;;18.20;99.90;;;;;;5297830;22;20053;-76
2023/08/07 13:31:28;;;;;;;0.00;0.00;;;18.20;99.90;;;;;;5335823;22;20386;-76
2023/08/07 13:33:54;;;;;;;0.00;0.00;;;18.60;99.90;;;;;;5026416;28;20030;-77
2023/08/07 13:36:20;;;;;;;0.00;0.00;;;18.30;99.90;;;;;;5121132;23;20080;-76
2023/08/07 13:38:46;;;;;;;0.00;0.00;;;18.30;99.90;;;;;;5024102;28;20473;-76
2023/08/07 13:41:13;;;;;;;;;;;17.50;99.90;;;;;;5041007;28;20026;-76
2023/08/07 13:43:39;;;;;;;0.00;0.00;;;18.30;99.90;;;;;;5026313;28;19971;-76
2023/08/07 13:51:17;;;;;;;0.00;0.00;;;18.10;99.90;;;;;;5243255;22;20049;-74
2023/08/07 13:53:44;;;;;;;0.00;0.00;;;18.10;99.90;;;;;;5028520;28;20033;-74
2023/08/07 13:56:12;;;;;;;0.00;0.00;;;18.00;99.90;;;;;;5025479;28;20017;-75
2023/08/07 13:58:39;;;;;;;0.00;0.00;;;18.30;99.90;;;;;;5030431;28;20018;-74
2023/08/07 14:01:06;;;;;;;0.17;0.08;;;18.30;99.90;;;;;;5026708;28;20132;-73
2023/08/07 14:03:33;;;;;;;0.00;0.00;;;18.00;99.90;;;;;;5007546;28;20049;-73
2023/08/07 14:05:59;;;;;;;0.00;0.00;;;18.40;99.90;;;;;;4989382;28;20026;-75
2023/08/07 14:08:26;;;;;;;0.00;0.00;;;18.70;99.90;;;;;;5003013;28;20096;-76
2023/08/07 14:10:52;;;;;;;;;;;18.70;99.90;;;;;;5002118;28;20032;-74
2023/08/07 14:13:19;;;;;;;0.00;0.00;;;18.60;99.90;;;;;;5001505;28;19906;-77
2023/08/07 14:15:47;;;;;;;0.00;0.00;;;18.10;99.90;;;;;;4985958;28;20046;-76
2023/08/07 14:18:15;;;;;;;0.00;0.00;;;17.90;99.90;;;;;;4987991;28;20057;-75
2023/08/07 14:20:42;;;;;;;0.00;0.00;;;16.70;99.90;;;;;;5008801;28;20075;-76
2023/08/07 14:28:19;;;;;;;0.00;0.00;;;17.40;99.90;;;;;;5174751;22;20055;-77
2023/08/07 14:30:45;;;;;;;0.00;0.00;;;17.10;99.90;;;;;;5032851;28;20049;-78
2023/08/07 14:33:11;;;;;;;0.00;0.00;;;17.20;99.90;;;;;;5016868;28;20069;-76